createdAt,value
2022-10-01T00:00:00.238Z,92
2022-10-01T00:05:00.168Z,93
2022-10-01T00:10:00.181Z,93
2022-10-01T00:15:04.263Z,93
2022-10-01T00:20:00.195Z,93
2022-10-01T00:25:00.172Z,94
2022-10-01T00:30:00.235Z,94
2022-10-01T00:35:00.178Z,94
2022-10-01T00:40:00.174Z,94
2022-10-01T00:45:00.197Z,94
2022-10-01T00:50:00.208Z,94
2022-10-01T00:55:00.170Z,94
2022-10-01T01:00:03.296Z,94
2022-10-01T01:05:00.165Z,94
2022-10-01T01:10:00.238Z,94
2022-10-01T01:15:00.176Z,94
2022-10-01T01:20:00.209Z,94
2022-10-01T01:25:00.178Z,95
2022-10-01T01:30:00.194Z,95
2022-10-01T01:35:00.166Z,95
2022-10-01T01:40:00.224Z,94
2022-10-01T01:45:00.183Z,94
2022-10-01T01:50:00.192Z,95
2022-10-01T01:55:00.175Z,95
2022-10-01T02:00:00.193Z,94
2022-10-01T02:05:00.169Z,95
2022-10-01T02:10:00.188Z,95
2022-10-01T02:15:00.182Z,95
2022-10-01T02:20:00.178Z,95
2022-10-01T02:25:00.170Z,95
2022-10-01T02:30:00.206Z,94
2022-10-01T02:35:00.183Z,95
2022-10-01T02:40:00.190Z,95
2022-10-01T02:45:00.145Z,96
2022-10-01T02:50:00.218Z,96
2022-10-01T02:55:00.182Z,96
2022-10-01T03:00:00.292Z,96
2022-10-01T03:05:00.178Z,96
2022-10-01T03:10:00.184Z,96
2022-10-01T03:15:00.181Z,96
2022-10-01T03:20:00.216Z,96
2022-10-01T03:25:00.196Z,96
2022-10-01T03:30:00.200Z,96
2022-10-01T03:35:00.201Z,96
2022-10-01T03:40:00.217Z,96
2022-10-01T03:45:00.210Z,95
2022-10-01T03:50:00.214Z,95
2022-10-01T03:55:00.195Z,95
2022-10-01T04:00:00.252Z,95
2022-10-01T04:05:00.223Z,95
2022-10-01T04:10:00.189Z,95
2022-10-01T04:15:00.182Z,95
2022-10-01T04:20:00.218Z,95
2022-10-01T04:25:00.231Z,95
2022-10-01T04:30:00.179Z,95
2022-10-01T04:35:00.215Z,95
2022-10-01T04:40:00.201Z,95
2022-10-01T04:45:00.186Z,95
2022-10-01T04:50:00.205Z,95
2022-10-01T04:55:00.196Z,95
2022-10-01T05:00:00.228Z,95
2022-10-01T05:05:00.156Z,95
2022-10-01T05:10:00.206Z,96
2022-10-01T05:15:00.192Z,96
2022-10-01T05:20:00.192Z,96
2022-10-01T05:25:00.223Z,96
2022-10-01T05:30:00.195Z,96
2022-10-01T05:35:00.189Z,96
2022-10-01T05:40:00.207Z,96
2022-10-01T05:45:00.277Z,96
2022-10-01T05:50:00.198Z,96
2022-10-01T05:55:00.199Z,96
2022-10-01T06:00:00.247Z,96
2022-10-01T06:05:00.191Z,96
2022-10-01T06:10:00.202Z,95
2022-10-01T06:15:00.200Z,96
2022-10-01T06:20:00.203Z,96
2022-10-01T06:25:00.194Z,96
2022-10-01T06:30:00.268Z,95
2022-10-01T06:35:00.212Z,95
2022-10-01T06:40:00.197Z,95
2022-10-01T06:45:00.217Z,95
2022-10-01T06:50:00.209Z,95
2022-10-01T06:55:00.214Z,95
2022-10-01T07:00:00.243Z,95
2022-10-01T07:05:00.202Z,95
2022-10-01T07:10:00.202Z,95
2022-10-01T07:15:00.203Z,95
2022-10-01T07:20:00.195Z,94
2022-10-01T07:25:00.194Z,93
2022-10-01T07:30:00.205Z,93
2022-10-01T07:35:00.199Z,93
2022-10-01T07:40:03.050Z,93
2022-10-01T07:45:00.224Z,92
2022-10-01T07:50:00.212Z,93
2022-10-01T07:55:00.204Z,93
2022-10-01T08:00:00.238Z,93
2022-10-01T08:05:00.244Z,91
2022-10-01T08:10:00.254Z,92
2022-10-01T08:15:00.210Z,92
2022-10-01T08:20:00.235Z,92
2022-10-01T08:25:00.264Z,92
2022-10-01T08:30:00.248Z,93
2022-10-01T08:35:00.272Z,89
2022-10-01T08:40:00.242Z,86
2022-10-01T08:45:00.627Z,86
2022-10-01T08:50:00.254Z,85
2022-10-01T08:55:00.216Z,85
2022-10-01T09:00:00.251Z,86
2022-10-01T09:05:01.788Z,90
2022-10-01T09:10:00.289Z,91
2022-10-01T09:15:00.211Z,91
2022-10-01T09:20:00.293Z,91
2022-10-01T09:25:00.246Z,89
2022-10-01T09:30:00.252Z,89
2022-10-01T09:35:04.257Z,88
2022-10-01T09:40:00.226Z,87
2022-10-01T09:45:00.246Z,89
2022-10-01T09:50:00.276Z,87
2022-10-01T09:55:00.718Z,87
2022-10-01T10:00:00.241Z,83
2022-10-01T10:05:00.249Z,85
2022-10-01T10:10:00.242Z,86
2022-10-01T10:15:00.253Z,85
2022-10-01T10:20:00.225Z,86
2022-10-01T10:25:00.217Z,82
2022-10-01T10:30:00.197Z,82
2022-10-01T10:35:03.194Z,83
2022-10-01T10:40:00.204Z,86
2022-10-01T10:45:00.191Z,85
2022-10-01T10:50:00.221Z,85
2022-10-01T10:55:00.279Z,83
2022-10-01T11:00:00.317Z,80
2022-10-01T11:05:00.209Z,80
2022-10-01T11:10:00.198Z,79
2022-10-01T11:15:00.217Z,77
2022-10-01T11:20:00.915Z,75
2022-10-01T11:25:00.182Z,71
2022-10-01T11:30:00.228Z,69
2022-10-01T11:35:00.218Z,70
2022-10-01T11:40:00.193Z,69
2022-10-01T11:45:00.965Z,68
2022-10-01T11:50:00.241Z,67
2022-10-01T11:55:00.316Z,69
2022-10-01T12:00:00.288Z,68
2022-10-01T12:05:00.217Z,67
2022-10-01T12:15:04.234Z,68
2022-10-01T12:20:00.286Z,65
2022-10-01T12:25:00.193Z,66
2022-10-01T12:35:00.237Z,64
2022-10-01T12:40:00.204Z,61
2022-10-01T12:45:00.210Z,61
2022-10-01T12:50:00.302Z,59
2022-10-01T12:55:00.208Z,59
2022-10-01T13:00:00.390Z,62
2022-10-01T13:05:00.190Z,61
2022-10-01T13:10:00.251Z,60
2022-10-01T13:15:00.254Z,61
2022-10-01T13:20:00.209Z,61
2022-10-01T13:25:00.192Z,62
2022-10-01T13:30:00.294Z,61
2022-10-01T13:35:00.215Z,61
2022-10-01T13:40:00.216Z,61
2022-10-01T13:45:00.213Z,60
2022-10-01T13:50:00.263Z,62
2022-10-01T13:55:00.224Z,64
2022-10-01T14:00:00.278Z,65
2022-10-01T14:05:00.213Z,64
2022-10-01T14:10:00.223Z,64
2022-10-01T14:15:00.212Z,64
2022-10-01T14:20:00.246Z,64
2022-10-01T14:25:00.246Z,66
2022-10-01T14:30:00.212Z,65
2022-10-01T14:35:00.214Z,64
2022-10-01T14:40:00.219Z,61
2022-10-01T14:45:00.224Z,61
2022-10-01T14:50:00.191Z,62
2022-10-01T14:55:00.225Z,63
2022-10-01T15:00:00.336Z,64
2022-10-01T15:05:00.360Z,67
2022-10-01T15:10:00.200Z,65
2022-10-01T15:15:00.209Z,66
2022-10-01T15:20:00.227Z,65
2022-10-01T15:25:00.176Z,67
2022-10-01T15:30:00.365Z,67
2022-10-01T15:35:00.256Z,68
2022-10-01T15:40:00.315Z,68
2022-10-01T15:45:00.203Z,69
2022-10-01T15:50:00.347Z,69
2022-10-01T15:55:00.297Z,69
2022-10-01T16:00:00.222Z,69
2022-10-01T16:05:00.193Z,69
2022-10-01T16:10:00.241Z,69
2022-10-01T16:15:00.203Z,69
2022-10-01T16:20:00.211Z,70
2022-10-01T16:25:00.189Z,70
2022-10-01T16:30:05.003Z,69
2022-10-01T16:35:00.192Z,70
2022-10-01T16:40:00.195Z,71
2022-10-01T16:45:00.185Z,71
2022-10-01T16:50:00.230Z,71
2022-10-01T16:55:00.220Z,73
2022-10-01T17:00:00.220Z,72
2022-10-01T17:05:00.218Z,73
2022-10-01T17:10:00.212Z,74
2022-10-01T17:15:00.220Z,74
2022-10-01T17:20:00.525Z,75
2022-10-01T17:25:00.210Z,75
2022-10-01T17:30:00.204Z,77
2022-10-01T17:35:00.192Z,77
2022-10-01T17:40:00.195Z,77
2022-10-01T17:45:00.192Z,78
2022-10-01T17:50:00.238Z,79
2022-10-01T17:55:00.212Z,79
2022-10-01T18:00:00.251Z,79
2022-10-01T18:05:00.220Z,78
2022-10-01T18:10:00.209Z,78
2022-10-01T18:15:00.197Z,78
2022-10-01T18:20:00.203Z,78
2022-10-01T18:25:00.170Z,79
2022-10-01T18:30:00.199Z,80
2022-10-01T18:35:00.209Z,80
2022-10-01T18:40:00.240Z,81
2022-10-01T18:45:00.192Z,81
2022-10-01T18:50:00.192Z,79
2022-10-01T18:55:00.198Z,78
2022-10-01T19:00:00.211Z,79
2022-10-01T19:05:00.179Z,79
2022-10-01T19:10:00.177Z,79
2022-10-01T19:15:00.204Z,80
2022-10-01T19:20:00.183Z,80
2022-10-01T19:25:00.179Z,81
2022-10-01T19:30:00.198Z,81
2022-10-01T19:35:00.183Z,81
2022-10-01T19:40:00.181Z,80
2022-10-01T19:45:00.159Z,82
2022-10-01T19:50:00.179Z,83
2022-10-01T19:55:00.173Z,83
2022-10-01T20:00:00.269Z,84
2022-10-01T20:05:00.162Z,85
2022-10-01T20:10:05.069Z,85
2022-10-01T20:15:00.205Z,85
2022-10-01T20:20:00.194Z,86
2022-10-01T20:25:00.175Z,86
2022-10-01T20:30:00.204Z,86
2022-10-01T20:35:00.176Z,87
2022-10-01T20:40:00.182Z,86
2022-10-01T20:45:00.200Z,87
2022-10-01T20:50:00.192Z,87
2022-10-01T20:55:00.191Z,87
2022-10-01T21:00:00.190Z,87
2022-10-01T21:05:00.185Z,88
2022-10-01T21:10:00.213Z,88
2022-10-01T21:15:00.178Z,88
2022-10-01T21:20:00.219Z,88
2022-10-01T21:25:00.172Z,88
2022-10-01T21:30:00.175Z,88
2022-10-01T21:35:00.181Z,88
2022-10-01T21:40:00.191Z,89
2022-10-01T21:45:00.188Z,89
2022-10-01T21:50:00.202Z,89
2022-10-01T21:55:00.190Z,89
2022-10-01T22:00:00.234Z,89
2022-10-01T22:05:00.188Z,89
2022-10-01T22:10:00.188Z,89
2022-10-01T22:15:00.149Z,89
2022-10-01T22:20:00.189Z,90
2022-10-01T22:25:00.187Z,90
2022-10-01T22:30:00.197Z,90
2022-10-01T22:35:00.162Z,91
2022-10-01T22:40:00.201Z,91
2022-10-01T22:45:00.152Z,91
2022-10-01T22:50:00.189Z,91
2022-10-01T22:55:00.172Z,92
2022-10-01T23:00:00.196Z,92
2022-10-01T23:05:00.175Z,92
2022-10-01T23:10:00.177Z,92
2022-10-01T23:15:00.181Z,92
2022-10-01T23:20:00.182Z,92
2022-10-01T23:25:00.179Z,92
2022-10-01T23:30:00.192Z,92
2022-10-01T23:35:00.177Z,93
2022-10-01T23:40:00.230Z,93
2022-10-01T23:45:00.204Z,92
2022-10-01T23:50:00.382Z,92
2022-10-01T23:55:00.161Z,92
